Flight Track Log - Related Links

Times and Time Zones

All times are in EDT time to prevent confusion due to time zone crossing. See the N51577 flight status page for this flight to view local times or setup timezone preferences in your user account.

Time Position Orientation Groundspeed Altitude Reporting Facility
EDT Latitude Longitude Course Direction KTS MPH feet Rate Location/Type
Tue 06:05:48 PM 45.1500 -93.2500 250° West 68 78 1,800  Level Minneapolis TRACON
Tue 06:06:42 PM 45.1500 -93.2833 270° West 69 79 2,200 486 Climbing Minneapolis TRACON
Tue 06:07:02 PM 45.1453 -93.2853 196° South 69 79 2,400 439 Climbing Minneapolis Center
Tue 06:08:04 PM 45.1392 -93.3111 251° West 70 81 2,800 435 Climbing Minneapolis Center
Tue 06:09:06 PM 45.1319 -93.3367 248° West 70 81 3,300 435 Climbing Minneapolis Center
Tue 06:10:08 PM 45.1256 -93.3628 251° West 70 81 3,700 387 Climbing Minneapolis Center
Tue 06:11:00 PM 45.0976 -93.3979 250° West  Level Estimated
Tue 06:11:10 PM 45.1192 -93.3900 252° West 73 84 4,100  Level Minneapolis Center
Tue 06:12:11 PM 45.1122 -93.4150 249° West 83 96 4,100  Level Minneapolis Center
Tue 06:13:13 PM 45.0997 -93.4631 250° West 93 107 4,100  Level Minneapolis Center
Tue 06:14:15 PM 45.0911 -93.4975 251° West 94 108 4,100  Level Minneapolis Center
Tue 06:15:17 PM 45.0822 -93.5322 250° West 95 109 4,100  Level Minneapolis Center
Tue 06:16:19 PM 45.0728 -93.5667 249° West 95 109 4,100  Level Minneapolis Center
Tue 06:17:21 PM 45.0642 -93.6006 250° West 92 106 4,100  Level Minneapolis Center
Tue 06:18:22 PM 45.0556 -93.6344 250° West 92 106 4,100  Level Minneapolis Center
Tue 06:19:24 PM 45.0447 -93.6750 249° West 93 107 4,100  Level Minneapolis Center
Tue 06:20:26 PM 45.0358 -93.7081 249° West 91 105 4,100  Level Minneapolis Center
Tue 06:21:28 PM 45.0281 -93.7397 251° West 86 99 4,100  Level Minneapolis Center
Tue 06:22:30 PM 45.0194 -93.7742 251° West 93 107 4,100  Level Minneapolis Center
Tue 06:23:32 PM 45.0117 -93.8011 248° West 93 107 4,100  Level Minneapolis Center
Tue 06:24:34 PM 45.0008 -93.8428 250° West 94 108 4,100  Level Minneapolis Center
Tue 06:25:36 PM 44.9897 -93.8828 249° West 92 106 4,100  Level Minneapolis Center
Tue 06:26:38 PM 44.9808 -93.9150 249° West 89 102 4,100  Level Minneapolis Center
Tue 06:27:40 PM 44.9722 -93.9486 250° West 91 105 4,100  Level Minneapolis Center
Tue 06:28:42 PM 44.9628 -93.9811 248° West 91 105 4,100  Level Minneapolis Center
Tue 06:29:44 PM 44.9547 -94.0131 250° West 88 101 4,100  Level Minneapolis Center
Tue 06:30:46 PM 44.9439 -94.0517 248° West 88 101 4,100  Level Minneapolis Center
Tue 06:31:47 PM 44.9350 -94.0878 251° West 97 112 4,100  Level Minneapolis Center
Tue 06:32:49 PM 44.9258 -94.1208 249° West 92 106 4,100  Level Minneapolis Center
Tue 06:33:51 PM 44.9175 -94.1536 250° West 90 104 4,100  Level Minneapolis Center
Tue 06:34:53 PM 44.9081 -94.1864 248° West 90 104 4,100  Level Minneapolis Center
Tue 06:35:55 PM 44.8994 -94.2169 248° West 86 99 4,100  Level Minneapolis Center
Tue 06:36:57 PM 44.8894 -94.2583 251° West 92 106 4,100  Level Minneapolis Center
Tue 06:37:59 PM 44.8800 -94.2936 249° West 97 112 4,100  Level Minneapolis Center
Tue 06:39:01 PM 44.8703 -94.3286 249° West 98 113 4,100  Level Minneapolis Center
Tue 06:40:03 PM 44.8611 -94.3619 249° West 93 107 4,100  Level Minneapolis Center
Tue 06:41:05 PM 44.8517 -94.3981 250° West 100 115 4,100  Level Minneapolis Center
Tue 06:42:07 PM 44.8428 -94.4322 250° West 94 108 4,100  Level Minneapolis Center
Tue 06:43:09 PM 44.8317 -94.4739 249° West 95 109 4,100  Level Minneapolis Center
Tue 06:44:11 PM 44.8211 -94.5078 246° West 92 106 4,100  Level Minneapolis Center
Tue 06:45:13 PM 44.8122 -94.5417 250° West 90 104 4,100  Level Minneapolis Center
Tue 06:46:15 PM 44.8028 -94.5758 249° West 91 105 4,100  Level Minneapolis Center
Tue 06:47:17 PM 44.7931 -94.6103 248° West 93 107 4,100  Level Minneapolis Center
Tue 06:48:19 PM 44.7825 -94.6481 249° West 93 107 4,100  Level Minneapolis Center
Tue 06:49:21 PM 44.7728 -94.6817 248° West 92 106 4,100  Level Minneapolis Center
Tue 06:50:23 PM 44.7636 -94.7147 249° West 92 106 4,100  Level Minneapolis Center
Tue 06:51:25 PM 44.7550 -94.7478 250° West 91 105 4,100  Level Minneapolis Center
Tue 06:52:27 PM 44.7431 -94.7903 248° West 97 112 4,100  Level Minneapolis Center
Tue 06:53:29 PM 44.7331 -94.8256 248° West 97 112 4,100  Level Minneapolis Center
Tue 06:54:31 PM 44.7239 -94.8619 250° West 99 114 4,100  Level Minneapolis Center
Tue 06:55:33 PM 44.7136 -94.8944 246° West 94 108 4,100  Level Minneapolis Center
Tue 06:56:47 PM 44.7044 -94.9286 249° West 92 106 4,100  Level Minneapolis Center
Tue 06:57:49 PM 44.6947 -94.9697 252° West 93 107 4,100  Level Minneapolis Center
Tue 06:58:51 PM 44.6828 -95.0089 247° West 91 105 4,100 -48 Level Minneapolis Center
Tue 06:59:53 PM 44.6736 -95.0433 249° West 93 107 4,000 -48 Descending Minneapolis Center
Tue 07:00:55 PM 44.6644 -95.0783 250° West 95 109 4,000 48 Level Minneapolis Center
Tue 07:01:57 PM 44.6539 -95.1103 245° Southwest 93 107 4,100 48 Climbing Minneapolis Center
Tue 07:02:59 PM 44.6444 -95.1433 248° West 92 106 4,100 -44 Level Minneapolis Center
Tue 07:04:13 PM 44.6358 -95.1756 249° West 91 105 4,000 -44 Descending Minneapolis Center
Tue 07:05:15 PM 44.6228 -95.2197 247° West 88 101 4,000  Level Minneapolis Center
Tue 07:06:17 PM 44.6139 -95.2500 248° West 86 99 4,000  Level Minneapolis Center
Tue 07:07:19 PM 44.6069 -95.2744 248° West 85 98 4,000 44 Level Minneapolis Center
Tue 07:08:33 PM 44.5972 -95.3139 251° West 87 100 4,100 44 Climbing Minneapolis Center
Tue 07:09:35 PM 44.5872 -95.3481 248° West 90 104 4,100  Level Minneapolis Center
Tue 07:10:37 PM 44.5753 -95.3917 249° West 96 110 4,100  Level Minneapolis Center
Tue 07:11:39 PM 44.5628 -95.4344 248° West 99 114 4,100 -48 Level Minneapolis Center
Tue 07:12:41 PM 44.5522 -95.4700 247° West 99 114 4,000  Descending Minneapolis Center
Tue 07:13:42 PM 44.5425 -95.5064 249° West 99 114 4,100 98 Climbing Minneapolis Center

Login

Don't have an account? Register now (free) for customized features, flight alerts, and more!